createdAt,value
2022-12-04T00:01:27.010Z,3.00
2022-12-04T00:03:55.720Z,3.00
2022-12-04T00:06:24.123Z,3.10
2022-12-04T00:08:52.155Z,3.10
2022-12-04T00:11:23.301Z,3.10
2022-12-04T00:13:51.053Z,3.00
2022-12-04T00:16:21.119Z,3.00
2022-12-04T00:18:48.697Z,3.00
2022-12-04T00:21:17.512Z,3.10
2022-12-04T00:23:45.693Z,3.00
2022-12-04T00:26:19.865Z,3.00
2022-12-04T00:28:47.903Z,3.00
2022-12-04T00:31:17.765Z,3.00
2022-12-04T00:33:45.419Z,3.00
2022-12-04T00:36:14.438Z,3.00
2022-12-04T00:38:45.653Z,3.00
2022-12-04T00:41:14.218Z,3.00
2022-12-04T00:43:42.219Z,3.00
2022-12-04T00:46:10.101Z,3.00
2022-12-04T00:48:37.578Z,3.00
2022-12-04T00:51:07.535Z,3.00
2022-12-04T00:53:35.060Z,3.00
2022-12-04T00:56:11.306Z,2.90
2022-12-04T00:58:38.528Z,3.00
2022-12-04T01:01:12.005Z,3.10
2022-12-04T01:03:39.826Z,3.10
2022-12-04T01:06:07.837Z,3.20
2022-12-04T01:08:35.160Z,3.10
2022-12-04T01:11:05.869Z,3.10
2022-12-04T01:13:33.125Z,3.10
2022-12-04T01:16:00.296Z,3.20
2022-12-04T01:18:27.537Z,3.20
2022-12-04T01:20:54.725Z,3.20
2022-12-04T01:23:22.023Z,3.20
2022-12-04T01:25:58.021Z,3.20
2022-12-04T01:28:26.323Z,3.10
2022-12-04T01:30:59.778Z,3.10
2022-12-04T01:33:27.497Z,3.10
2022-12-04T01:35:56.352Z,3.10
2022-12-04T01:38:24.292Z,3.10
2022-12-04T01:40:51.925Z,3.10
2022-12-04T01:43:19.578Z,3.10
2022-12-04T01:45:57.948Z,3.10
2022-12-04T01:48:35.819Z,3.10
2022-12-04T01:51:24.963Z,3.10
2022-12-04T01:53:55.982Z,3.10
2022-12-04T01:56:38.244Z,3.10
2022-12-04T01:59:07.856Z,3.10
2022-12-04T02:01:44.108Z,3.10
2022-12-04T02:04:11.360Z,3.10
2022-12-04T02:06:38.558Z,3.20
2022-12-04T02:09:05.866Z,3.10
2022-12-04T02:11:56.923Z,3.10
2022-12-04T02:14:40.046Z,3.20
2022-12-04T02:17:32.932Z,3.20
2022-12-04T02:20:18.417Z,3.10
2022-12-04T02:23:04.414Z,3.10
2022-12-04T02:25:40.482Z,3.10
2022-12-04T02:28:16.189Z,3.20
2022-12-04T02:30:45.211Z,3.10
2022-12-04T02:33:20.718Z,3.10
2022-12-04T02:36:19.372Z,3.10
2022-12-04T02:39:12.470Z,3.20
2022-12-04T02:41:59.774Z,3.20
2022-12-04T02:44:42.638Z,3.20
2022-12-04T02:47:13.344Z,3.20
2022-12-04T02:49:49.733Z,3.20
2022-12-04T02:52:22.406Z,3.20
2022-12-04T02:54:55.691Z,3.20
2022-12-04T02:57:28.587Z,3.10
2022-12-04T02:59:58.613Z,3.20
2022-12-04T03:02:32.988Z,3.10
2022-12-04T03:05:05.717Z,3.20
2022-12-04T03:08:04.466Z,3.20
2022-12-04T03:10:38.301Z,3.20
2022-12-04T03:13:15.758Z,3.20
2022-12-04T03:16:04.807Z,3.20
2022-12-04T03:18:43.401Z,3.20
2022-12-04T03:21:16.888Z,3.20
2022-12-04T03:23:56.927Z,3.20
2022-12-04T03:26:30.433Z,3.10
2022-12-04T03:29:07.783Z,3.10
2022-12-04T03:31:50.230Z,3.20
2022-12-04T03:34:30.564Z,3.20
2022-12-04T03:37:03.867Z,3.20
2022-12-04T03:39:38.998Z,3.20
2022-12-04T03:42:18.702Z,3.20
2022-12-04T03:45:02.938Z,3.20
2022-12-04T03:47:46.400Z,3.20
2022-12-04T03:50:32.353Z,3.20
2022-12-04T03:53:06.537Z,3.20
2022-12-04T03:55:46.019Z,3.20
2022-12-04T03:58:22.748Z,3.20
2022-12-04T04:00:52.506Z,3.30
2022-12-04T04:03:24.027Z,3.30
2022-12-04T04:05:55.847Z,3.30
2022-12-04T04:08:27.458Z,3.30
2022-12-04T04:11:16.882Z,3.30
2022-12-04T04:14:20.137Z,3.30
2022-12-04T04:17:12.784Z,3.30
2022-12-04T04:20:01.727Z,3.30
2022-12-04T04:22:50.436Z,3.30
2022-12-04T04:25:24.863Z,3.30
2022-12-04T04:27:53.781Z,3.30
2022-12-04T04:30:21.491Z,3.30
2022-12-04T04:33:13.030Z,3.20
2022-12-04T04:35:57.842Z,3.20
2022-12-04T04:38:43.979Z,3.20
2022-12-04T04:41:28.141Z,3.20
2022-12-04T04:44:04.825Z,3.20
2022-12-04T04:46:36.077Z,3.20
2022-12-04T04:49:06.807Z,3.20
2022-12-04T04:51:36.677Z,3.20
2022-12-04T04:54:08.822Z,3.10
2022-12-04T04:56:43.933Z,3.20
2022-12-04T04:59:11.764Z,3.20
2022-12-04T05:01:40.061Z,3.20
2022-12-04T05:04:08.174Z,3.20
2022-12-04T05:06:35.436Z,3.20
2022-12-04T05:09:02.912Z,3.20
2022-12-04T05:11:30.317Z,3.20
2022-12-04T05:13:57.502Z,3.20
2022-12-04T05:16:24.748Z,3.20
2022-12-04T05:19:10.811Z,3.20
2022-12-04T05:21:38.739Z,3.20
2022-12-04T05:24:06.163Z,3.20
2022-12-04T05:26:33.343Z,3.10
2022-12-04T05:29:00.608Z,3.10
2022-12-04T05:31:27.879Z,3.10
2022-12-04T05:33:56.005Z,3.10
2022-12-04T05:36:23.245Z,3.10
2022-12-04T05:38:50.402Z,3.10
2022-12-04T05:41:17.676Z,3.10
2022-12-04T05:43:44.825Z,3.20
2022-12-04T05:46:12.087Z,3.20
2022-12-04T05:48:39.328Z,3.20
2022-12-04T05:51:08.080Z,3.20
2022-12-04T05:53:35.918Z,3.20
2022-12-04T05:56:04.989Z,3.10
2022-12-04T05:58:36.119Z,3.10
2022-12-04T06:01:15.831Z,3.10
2022-12-04T06:03:43.569Z,3.10
2022-12-04T06:06:21.000Z,3.10
2022-12-04T06:08:50.242Z,3.00
2022-12-04T06:11:23.954Z,3.10
2022-12-04T06:13:51.336Z,3.10
2022-12-04T06:16:22.868Z,3.10
2022-12-04T06:18:52.197Z,3.10
2022-12-04T06:21:20.487Z,3.10
2022-12-04T06:23:48.340Z,3.20
2022-12-04T06:26:15.889Z,3.20
2022-12-04T06:28:43.429Z,3.30
2022-12-04T06:31:13.290Z,3.20
2022-12-04T06:33:40.989Z,3.20
2022-12-04T06:36:14.140Z,3.20
2022-12-04T06:38:41.829Z,3.20
2022-12-04T06:41:12.203Z,3.20
2022-12-04T06:43:40.090Z,3.20
2022-12-04T06:46:10.925Z,3.20
2022-12-04T06:48:38.665Z,3.30
2022-12-04T06:51:15.583Z,3.20
2022-12-04T06:53:43.573Z,3.20
2022-12-04T06:56:14.213Z,3.30
2022-12-04T06:58:41.486Z,3.30
2022-12-04T07:01:14.504Z,3.30
2022-12-04T07:03:46.299Z,3.30
2022-12-04T07:06:26.240Z,3.30
2022-12-04T07:09:02.086Z,3.20
2022-12-04T07:11:29.881Z,3.20
2022-12-04T07:13:57.358Z,3.30
2022-12-04T07:16:26.266Z,3.20
2022-12-04T07:18:53.973Z,3.20
2022-12-04T07:21:23.998Z,3.20
2022-12-04T07:23:53.249Z,3.20
2022-12-04T07:26:21.325Z,3.20
2022-12-04T07:28:48.838Z,3.20
2022-12-04T07:31:19.363Z,3.20
2022-12-04T07:33:47.555Z,3.20
2022-12-04T07:36:19.468Z,3.20
2022-12-04T07:38:47.084Z,3.20
2022-12-04T07:41:14.524Z,3.20
2022-12-04T07:43:42.279Z,3.10
2022-12-04T07:46:14.114Z,3.20
2022-12-04T07:48:41.975Z,3.20
2022-12-04T07:51:10.349Z,3.10
2022-12-04T07:53:38.461Z,3.20
2022-12-04T07:56:06.501Z,3.20
2022-12-04T07:58:33.999Z,3.20
2022-12-04T08:01:19.470Z,3.20
2022-12-04T08:03:48.896Z,3.20
2022-12-04T08:06:19.300Z,3.20
2022-12-04T08:08:47.529Z,3.20
2022-12-04T08:11:23.582Z,3.20
2022-12-04T08:13:55.728Z,3.20
2022-12-04T08:16:23.495Z,3.20
2022-12-04T08:18:51.318Z,3.20
2022-12-04T08:21:22.415Z,3.20
2022-12-04T08:23:51.673Z,3.20
2022-12-04T08:26:20.717Z,3.20
2022-12-04T08:28:48.685Z,3.30
2022-12-04T08:31:21.640Z,3.30
2022-12-04T08:33:50.062Z,3.30
2022-12-04T08:36:19.809Z,3.30
2022-12-04T08:38:47.491Z,3.30
2022-12-04T08:41:17.495Z,3.30
2022-12-04T08:43:45.427Z,3.30
2022-12-04T08:46:15.983Z,3.20
2022-12-04T08:48:43.909Z,3.20
2022-12-04T08:51:19.831Z,3.30
2022-12-04T08:53:47.397Z,3.30
2022-12-04T08:56:15.024Z,3.30
2022-12-04T08:58:42.219Z,3.30
2022-12-04T09:01:14.573Z,3.30
2022-12-04T09:03:42.228Z,3.40
2022-12-04T09:06:11.832Z,3.40
2022-12-04T09:08:39.074Z,3.40
2022-12-04T09:11:27.588Z,3.40
2022-12-04T09:13:55.743Z,3.40
2022-12-04T09:16:25.014Z,3.40
2022-12-04T09:18:52.750Z,3.50
2022-12-04T09:21:21.688Z,3.50
2022-12-04T09:23:48.931Z,3.40
2022-12-04T09:26:29.136Z,3.50
2022-12-04T09:28:58.066Z,3.50
2022-12-04T09:31:25.744Z,3.50
2022-12-04T09:33:53.470Z,3.50
2022-12-04T09:36:21.030Z,3.60
2022-12-04T09:38:50.702Z,3.60
2022-12-04T09:41:36.480Z,3.60
2022-12-04T09:44:47.647Z,3.60
2022-12-04T09:47:22.091Z,3.60
2022-12-04T09:50:10.090Z,3.60
2022-12-04T09:52:59.880Z,3.70
2022-12-04T09:55:35.184Z,3.70
2022-12-04T09:58:06.416Z,3.70
2022-12-04T10:00:38.012Z,3.70
2022-12-04T10:03:07.715Z,3.70
2022-12-04T10:05:37.868Z,3.80
2022-12-04T10:08:21.688Z,3.80
2022-12-04T10:11:21.259Z,3.90
2022-12-04T10:14:15.896Z,3.90
2022-12-04T10:17:01.804Z,3.90
2022-12-04T10:19:58.529Z,3.80
2022-12-04T10:22:34.953Z,3.70
2022-12-04T10:25:17.721Z,3.70
2022-12-04T10:27:57.916Z,3.70
2022-12-04T10:30:29.418Z,3.70
2022-12-04T10:33:00.768Z,3.60
2022-12-04T10:35:30.721Z,3.60
2022-12-04T10:38:02.616Z,3.60
2022-12-04T10:40:41.645Z,3.70
2022-12-04T10:43:25.637Z,3.70
2022-12-04T10:45:52.796Z,3.70
2022-12-04T10:48:28.292Z,3.70
2022-12-04T10:50:55.446Z,3.80
2022-12-04T10:53:32.006Z,3.80
2022-12-04T10:56:14.460Z,3.80
2022-12-04T10:58:42.108Z,3.80
2022-12-04T11:01:13.274Z,3.80
2022-12-04T11:03:44.526Z,3.80
2022-12-04T11:06:14.691Z,3.80
2022-12-04T11:08:48.694Z,3.80
2022-12-04T11:11:22.356Z,3.80
2022-12-04T11:14:00.045Z,3.80
2022-12-04T11:16:38.470Z,3.80
2022-12-04T11:19:38.220Z,3.80
2022-12-04T11:22:29.279Z,3.80
2022-12-04T11:24:58.934Z,3.80
2022-12-04T11:27:31.701Z,3.80
2022-12-04T11:30:07.536Z,3.70
2022-12-04T11:32:35.774Z,3.70
2022-12-04T11:35:18.148Z,3.70
2022-12-04T11:37:53.165Z,3.60
2022-12-04T11:40:20.969Z,3.60
2022-12-04T11:43:14.140Z,3.50
2022-12-04T11:45:41.863Z,3.50
2022-12-04T11:48:18.216Z,3.60
2022-12-04T11:51:10.489Z,3.50
2022-12-04T11:53:49.357Z,3.60
2022-12-04T11:56:19.575Z,3.70
2022-12-04T11:59:00.752Z,3.70
2022-12-04T12:01:37.079Z,3.70
2022-12-04T12:04:36.731Z,3.60
2022-12-04T12:07:16.568Z,3.70
2022-12-04T12:10:01.969Z,3.70
2022-12-04T12:12:45.928Z,3.70
2022-12-04T12:15:36.684Z,3.70
2022-12-04T12:18:32.834Z,3.70
2022-12-04T12:21:13.983Z,3.70
2022-12-04T12:24:14.821Z,3.70
2022-12-04T12:26:55.143Z,3.80
2022-12-04T12:30:01.568Z,3.80
2022-12-04T12:32:31.544Z,3.80
2022-12-04T12:35:00.444Z,3.80
2022-12-04T12:37:59.512Z,3.80
2022-12-04T12:40:40.166Z,3.80
2022-12-04T12:43:20.961Z,3.70
2022-12-04T12:45:52.386Z,3.70
2022-12-04T12:48:29.009Z,3.70
2022-12-04T12:51:28.638Z,3.70
2022-12-04T12:53:53.774Z,3.80
2022-12-04T12:56:31.488Z,3.80
2022-12-04T12:59:02.950Z,3.80
2022-12-04T13:02:08.277Z,3.90
2022-12-04T13:04:41.349Z,3.80
2022-12-04T13:07:25.380Z,3.80
2022-12-04T13:10:18.421Z,3.80
2022-12-04T13:13:08.147Z,3.80
2022-12-04T13:15:50.399Z,3.80
2022-12-04T13:18:43.117Z,3.70
2022-12-04T13:21:39.828Z,3.80
2022-12-04T13:24:16.005Z,3.80
2022-12-04T13:26:56.444Z,3.80
2022-12-04T13:29:59.638Z,3.80
2022-12-04T13:32:51.569Z,3.80
2022-12-04T13:35:27.460Z,4.00
2022-12-04T13:38:31.810Z,4.00
2022-12-04T13:41:02.762Z,4.00
2022-12-04T13:43:36.171Z,4.00
2022-12-04T13:46:07.053Z,4.00
2022-12-04T13:48:39.544Z,4.00
2022-12-04T13:51:41.435Z,4.00
2022-12-04T13:54:11.594Z,4.00
2022-12-04T13:56:41.524Z,4.00
2022-12-04T13:59:26.800Z,3.90
2022-12-04T14:02:04.939Z,3.90
2022-12-04T14:04:38.037Z,3.90
2022-12-04T14:07:05.456Z,3.90
2022-12-04T14:09:48.290Z,3.90
2022-12-04T14:12:17.116Z,4.00
2022-12-04T14:15:00.507Z,4.00
2022-12-04T14:17:34.781Z,4.00
2022-12-04T14:20:08.057Z,4.00
2022-12-04T14:22:35.560Z,4.00
2022-12-04T14:25:14.956Z,4.00
2022-12-04T14:27:44.266Z,4.10
2022-12-04T14:30:33.140Z,4.10
2022-12-04T14:33:12.732Z,4.10
2022-12-04T14:35:50.295Z,4.10
2022-12-04T14:38:21.694Z,4.00
2022-12-04T14:40:53.692Z,4.00
2022-12-04T14:43:33.228Z,5.10
2022-12-04T14:46:23.059Z,4.00
2022-12-04T14:48:55.845Z,4.00
2022-12-04T14:51:25.493Z,4.00
2022-12-04T14:54:17.947Z,4.00
2022-12-04T14:56:47.866Z,4.00
2022-12-04T14:59:21.007Z,4.00
2022-12-04T15:01:50.313Z,4.00
2022-12-04T15:04:17.427Z,4.00
2022-12-04T15:06:48.954Z,4.00
2022-12-04T15:09:40.529Z,4.00
2022-12-04T15:12:34.869Z,4.10
2022-12-04T15:15:09.815Z,4.10
2022-12-04T15:17:37.089Z,4.20
2022-12-04T15:20:18.250Z,4.20
2022-12-04T15:22:46.004Z,4.20
2022-12-04T15:25:18.987Z,4.20
2022-12-04T15:27:48.922Z,4.10
2022-12-04T15:30:19.113Z,4.20
2022-12-04T15:32:50.417Z,4.20
2022-12-04T15:35:28.424Z,4.20
2022-12-04T15:37:56.061Z,4.20
2022-12-04T15:40:27.106Z,4.20
2022-12-04T15:43:05.775Z,4.10
2022-12-04T15:45:34.722Z,4.20
2022-12-04T15:48:02.043Z,4.10
2022-12-04T15:50:31.111Z,4.20
2022-12-04T15:53:04.254Z,4.20
2022-12-04T15:55:52.294Z,4.30
2022-12-04T15:58:31.574Z,4.30
2022-12-04T16:01:10.203Z,4.30
2022-12-04T16:03:43.752Z,4.40
2022-12-04T16:06:29.337Z,4.40
2022-12-04T16:08:59.216Z,4.40
2022-12-04T16:11:39.179Z,4.40
2022-12-04T16:14:09.108Z,4.40
2022-12-04T16:16:38.156Z,4.40
2022-12-04T16:19:30.655Z,4.40
2022-12-04T16:21:57.856Z,4.40
2022-12-04T16:24:25.233Z,4.40
2022-12-04T16:26:55.163Z,4.40
2022-12-04T16:29:23.698Z,4.40
2022-12-04T16:31:51.639Z,4.40
2022-12-04T16:34:18.899Z,4.50
2022-12-04T16:36:46.349Z,4.50
2022-12-04T16:39:13.516Z,4.50
2022-12-04T16:41:41.074Z,4.50
2022-12-04T16:44:14.419Z,4.50
2022-12-04T16:46:42.194Z,4.50
2022-12-04T16:49:12.882Z,4.50
2022-12-04T16:51:46.408Z,4.50
2022-12-04T16:54:13.932Z,4.50
2022-12-04T16:56:43.727Z,4.60
2022-12-04T16:59:12.374Z,4.60
2022-12-04T17:01:48.128Z,4.60
2022-12-04T17:04:16.527Z,4.60
2022-12-04T17:06:44.256Z,4.60
2022-12-04T17:09:12.235Z,4.60
2022-12-04T17:11:39.988Z,4.60
2022-12-04T17:14:07.514Z,4.70
2022-12-04T17:16:43.609Z,4.70
2022-12-04T17:19:12.264Z,4.70
2022-12-04T17:21:40.299Z,4.70
2022-12-04T17:24:08.038Z,4.70
2022-12-04T17:26:35.272Z,4.70
2022-12-04T17:29:02.430Z,4.70
2022-12-04T17:31:32.377Z,4.70
2022-12-04T17:33:59.617Z,4.70
2022-12-04T17:36:27.690Z,4.70
2022-12-04T17:38:57.011Z,4.70
2022-12-04T17:41:24.712Z,4.70
2022-12-04T17:43:51.866Z,4.80
2022-12-04T17:46:21.718Z,4.80
2022-12-04T17:48:49.417Z,4.80
2022-12-04T17:51:20.601Z,4.80
2022-12-04T17:53:48.773Z,4.80
2022-12-04T17:56:19.518Z,4.80
2022-12-04T17:58:47.831Z,4.80
2022-12-04T18:01:24.142Z,4.80
2022-12-04T18:04:03.226Z,4.80
2022-12-04T18:06:42.489Z,4.90
2022-12-04T18:09:11.440Z,4.90
2022-12-04T18:11:40.754Z,4.90
2022-12-04T18:14:12.472Z,4.90
2022-12-04T18:16:42.878Z,4.90
2022-12-04T18:19:10.864Z,4.90
2022-12-04T18:21:38.299Z,4.90
2022-12-04T18:24:05.810Z,4.90
2022-12-04T18:26:36.223Z,4.90
2022-12-04T18:29:04.737Z,4.90
2022-12-04T18:31:32.639Z,4.90
2022-12-04T18:34:00.129Z,4.90
2022-12-04T18:36:29.736Z,4.90
2022-12-04T18:39:01.991Z,4.90
2022-12-04T18:41:30.235Z,4.90
2022-12-04T18:43:58.156Z,4.80
2022-12-04T18:46:25.883Z,4.90
2022-12-04T18:48:54.567Z,4.90
2022-12-04T18:51:26.750Z,4.90
2022-12-04T18:54:03.772Z,4.90
2022-12-04T18:56:33.306Z,5.00
2022-12-04T18:59:05.597Z,4.90
2022-12-04T19:01:32.862Z,5.00
2022-12-04T19:04:03.041Z,4.90
2022-12-04T19:06:32.400Z,4.90
2022-12-04T19:09:01.536Z,4.90
2022-12-04T19:11:28.816Z,4.90
2022-12-04T19:13:56.111Z,4.90
2022-12-04T19:16:23.412Z,4.90
2022-12-04T19:18:50.817Z,4.90
2022-12-04T19:21:18.461Z,4.90
2022-12-04T19:23:51.371Z,4.90
2022-12-04T19:26:18.642Z,4.90
2022-12-04T19:28:46.385Z,4.90
2022-12-04T19:31:19.776Z,4.90
2022-12-04T19:33:47.264Z,4.90
2022-12-04T19:36:15.411Z,4.90
2022-12-04T19:38:43.204Z,4.90
2022-12-04T19:41:16.418Z,5.00
2022-12-04T19:43:48.860Z,5.00
2022-12-04T19:46:19.179Z,5.00
2022-12-04T19:48:47.353Z,5.00
2022-12-04T19:51:17.333Z,5.10
2022-12-04T19:53:45.600Z,5.10
2022-12-04T19:56:26.585Z,5.10
2022-12-04T19:58:56.503Z,5.10
2022-12-04T20:01:26.665Z,5.20
2022-12-04T20:03:54.866Z,5.20
2022-12-04T20:06:25.077Z,5.30
2022-12-04T20:08:57.515Z,5.30
2022-12-04T20:11:25.546Z,5.30
2022-12-04T20:13:55.506Z,5.30
2022-12-04T20:16:27.120Z,5.40
2022-12-04T20:18:54.706Z,5.40
2022-12-04T20:21:26.211Z,5.40
2022-12-04T20:23:54.438Z,5.40
2022-12-04T20:26:27.140Z,5.50
2022-12-04T20:28:58.448Z,5.50
2022-12-04T20:31:30.949Z,5.50
2022-12-04T20:34:00.818Z,5.50
2022-12-04T20:36:29.783Z,5.60
2022-12-04T20:38:58.812Z,5.50
2022-12-04T20:41:27.881Z,5.60
2022-12-04T20:43:56.064Z,5.60
2022-12-04T20:46:26.489Z,5.60
2022-12-04T20:48:54.217Z,5.70
2022-12-04T20:51:24.103Z,5.70
2022-12-04T20:53:52.754Z,5.70
2022-12-04T20:56:25.882Z,5.70
2022-12-04T20:58:54.407Z,5.70
2022-12-04T21:01:21.712Z,5.80
2022-12-04T21:03:49.076Z,5.80
2022-12-04T21:06:19.990Z,5.80
2022-12-04T21:08:54.204Z,5.80
2022-12-04T21:11:26.288Z,5.80
2022-12-04T21:14:24.122Z,5.80
2022-12-04T21:16:51.672Z,5.90
2022-12-04T21:19:20.677Z,5.90
2022-12-04T21:21:48.531Z,5.90
2022-12-04T21:24:18.132Z,5.90
2022-12-04T21:26:45.905Z,5.90
2022-12-04T21:29:13.886Z,5.90
2022-12-04T21:31:41.500Z,5.90
2022-12-04T21:34:11.812Z,5.90
2022-12-04T21:36:39.155Z,5.90
2022-12-04T21:39:07.524Z,5.90
2022-12-04T21:42:07.522Z,5.90
2022-12-04T21:44:34.923Z,6.00
2022-12-04T21:47:02.192Z,6.00
2022-12-04T21:49:29.370Z,6.00
2022-12-04T21:51:58.014Z,6.00
2022-12-04T21:54:27.451Z,6.00
2022-12-04T21:56:55.845Z,4.60
2022-12-04T21:59:24.201Z,6.00
2022-12-04T22:01:51.870Z,5.90
2022-12-04T22:04:19.225Z,6.00
2022-12-04T22:06:46.874Z,6.10
2022-12-04T22:09:14.344Z,6.10
2022-12-04T22:11:42.034Z,6.10
2022-12-04T22:14:10.205Z,6.10
2022-12-04T22:16:42.041Z,6.20
2022-12-04T22:19:10.957Z,6.10
2022-12-04T22:21:38.724Z,6.20
2022-12-04T22:24:06.454Z,6.20
2022-12-04T22:26:33.777Z,6.20
2022-12-04T22:29:01.119Z,6.20
2022-12-04T22:31:30.232Z,6.20
2022-12-04T22:34:00.965Z,6.30
2022-12-04T22:36:30.692Z,6.30
2022-12-04T22:39:13.145Z,6.30
2022-12-04T22:41:40.357Z,6.30
2022-12-04T22:44:07.516Z,6.20
2022-12-04T22:46:34.811Z,6.20
2022-12-04T22:49:02.124Z,6.30
2022-12-04T22:51:29.717Z,6.30
2022-12-04T22:53:58.248Z,6.30
2022-12-04T22:56:30.734Z,6.30
2022-12-04T22:58:59.177Z,6.30
2022-12-04T23:01:31.713Z,6.30
2022-12-04T23:04:00.384Z,6.30
2022-12-04T23:06:30.878Z,6.30
2022-12-04T23:09:01.057Z,6.30
2022-12-04T23:11:29.218Z,6.40
2022-12-04T23:14:00.178Z,6.40
2022-12-04T23:16:31.272Z,6.40
2022-12-04T23:18:58.875Z,6.40
2022-12-04T23:21:26.610Z,6.40
2022-12-04T23:23:54.592Z,6.40
2022-12-04T23:26:24.784Z,6.40
2022-12-04T23:28:52.260Z,6.40
2022-12-04T23:31:19.825Z,6.40
2022-12-04T23:33:47.541Z,6.40
2022-12-04T23:36:15.594Z,6.40
2022-12-04T23:38:44.295Z,6.50
2022-12-04T23:41:14.788Z,6.50
2022-12-04T23:43:42.821Z,6.50
2022-12-04T23:46:12.651Z,6.50
2022-12-04T23:48:41.153Z,6.50
2022-12-04T23:51:09.665Z,6.50
2022-12-04T23:53:37.356Z,6.50
2022-12-04T23:56:12.121Z,6.50
2022-12-04T23:58:40.426Z,6.50
